sensor_id;sensor_type;location;lat;lon;timestamp;P1;durP1;ratioP1;P2;durP2;ratioP2
69410;SDS011;56604;48.652;9.194;2023-01-28T00:02:05;16.87;;;8.80;;
69410;SDS011;56604;48.652;9.194;2023-01-28T00:04:32;16.40;;;9.07;;
69410;SDS011;56604;48.652;9.194;2023-01-28T00:06:57;24.23;;;8.60;;
69410;SDS011;56604;48.652;9.194;2023-01-28T00:09:23;16.83;;;8.87;;
69410;SDS011;56604;48.652;9.194;2023-01-28T00:11:48;14.00;;;8.00;;
69410;SDS011;56604;48.652;9.194;2023-01-28T00:14:13;12.93;;;8.50;;
69410;SDS011;56604;48.652;9.194;2023-01-28T00:16:39;13.93;;;8.10;;
69410;SDS011;56604;48.652;9.194;2023-01-28T00:19:04;9.77;;;7.83;;
69410;SDS011;56604;48.652;9.194;2023-01-28T00:21:29;12.00;;;8.23;;
69410;SDS011;56604;48.652;9.194;2023-01-28T00:23:55;11.37;;;7.90;;
69410;SDS011;56604;48.652;9.194;2023-01-28T00:26:21;11.60;;;8.30;;
69410;SDS011;56604;48.652;9.194;2023-01-28T00:28:47;16.47;;;8.67;;
69410;SDS011;56604;48.652;9.194;2023-01-28T00:33:41;13.67;;;8.23;;
69410;SDS011;56604;48.652;9.194;2023-01-28T00:36:07;9.27;;;7.37;;
69410;SDS011;56604;48.652;9.194;2023-01-28T00:38:33;11.93;;;8.63;;
69410;SDS011;56604;48.652;9.194;2023-01-28T00:41:09;11.73;;;8.30;;
69410;SDS011;56604;48.652;9.194;2023-01-28T00:43:36;12.07;;;7.23;;
69410;SDS011;56604;48.652;9.194;2023-01-28T00:46:02;14.13;;;7.27;;
69410;SDS011;56604;48.652;9.194;2023-01-28T00:48:29;10.47;;;7.20;;
69410;SDS011;56604;48.652;9.194;2023-01-28T00:50:54;10.23;;;7.37;;
69410;SDS011;56604;48.652;9.194;2023-01-28T00:53:20;12.90;;;7.40;;
69410;SDS011;56604;48.652;9.194;2023-01-28T00:55:45;9.20;;;7.00;;
69410;SDS011;56604;48.652;9.194;2023-01-28T00:58:11;10.97;;;7.60;;
69410;SDS011;56604;48.652;9.194;2023-01-28T01:00:36;10.10;;;6.57;;
69410;SDS011;56604;48.652;9.194;2023-01-28T01:03:01;12.40;;;7.37;;
69410;SDS011;56604;48.652;9.194;2023-01-28T01:05:27;10.10;;;7.17;;
69410;SDS011;56604;48.652;9.194;2023-01-28T01:07:53;8.53;;;6.80;;
69410;SDS011;56604;48.652;9.194;2023-01-28T01:10:19;10.30;;;7.30;;
69410;SDS011;56604;48.652;9.194;2023-01-28T01:12:45;11.23;;;6.50;;
69410;SDS011;56604;48.652;9.194;2023-01-28T01:15:11;8.60;;;6.70;;
69410;SDS011;56604;48.652;9.194;2023-01-28T01:17:37;11.30;;;6.50;;
69410;SDS011;56604;48.652;9.194;2023-01-28T01:20:04;9.60;;;6.73;;
69410;SDS011;56604;48.652;9.194;2023-01-28T01:22:34;8.63;;;6.27;;
69410;SDS011;56604;48.652;9.194;2023-01-28T01:25:01;7.70;;;6.20;;
69410;SDS011;56604;48.652;9.194;2023-01-28T01:27:28;9.27;;;6.47;;
69410;SDS011;56604;48.652;9.194;2023-01-28T01:29:54;9.70;;;6.30;;
69410;SDS011;56604;48.652;9.194;2023-01-28T01:32:19;8.57;;;6.87;;
69410;SDS011;56604;48.652;9.194;2023-01-28T01:34:46;8.70;;;6.30;;
69410;SDS011;56604;48.652;9.194;2023-01-28T01:37:12;9.70;;;6.97;;
69410;SDS011;56604;48.652;9.194;2023-01-28T01:39:37;9.10;;;6.83;;
69410;SDS011;56604;48.652;9.194;2023-01-28T01:42:02;8.03;;;6.00;;
69410;SDS011;56604;48.652;9.194;2023-01-28T01:47:24;9.77;;;6.63;;
69410;SDS011;56604;48.652;9.194;2023-01-28T01:50:04;11.70;;;6.60;;
69410;SDS011;56604;48.652;9.194;2023-01-28T01:52:40;6.60;;;5.70;;
69410;SDS011;56604;48.652;9.194;2023-01-28T01:55:08;9.80;;;6.70;;
69410;SDS011;56604;48.652;9.194;2023-01-28T01:57:38;11.10;;;6.57;;
69410;SDS011;56604;48.652;9.194;2023-01-28T02:00:04;7.33;;;5.63;;
69410;SDS011;56604;48.652;9.194;2023-01-28T02:02:39;12.00;;;5.87;;
69410;SDS011;56604;48.652;9.194;2023-01-28T02:05:07;6.67;;;5.33;;
69410;SDS011;56604;48.652;9.194;2023-01-28T02:07:34;7.30;;;5.80;;
69410;SDS011;56604;48.652;9.194;2023-01-28T02:10:01;9.03;;;6.10;;
69410;SDS011;56604;48.652;9.194;2023-01-28T02:12:31;7.17;;;5.80;;
69410;SDS011;56604;48.652;9.194;2023-01-28T02:15:01;8.97;;;6.67;;
69410;SDS011;56604;48.652;9.194;2023-01-28T02:17:30;7.83;;;6.03;;
69410;SDS011;56604;48.652;9.194;2023-01-28T02:25:06;7.67;;;5.83;;
69410;SDS011;56604;48.652;9.194;2023-01-28T02:30:39;10.40;;;6.40;;
69410;SDS011;56604;48.652;9.194;2023-01-28T02:33:26;8.77;;;5.50;;
69410;SDS011;56604;48.652;9.194;2023-01-28T02:35:57;6.23;;;5.43;;
69410;SDS011;56604;48.652;9.194;2023-01-28T02:38:36;8.10;;;5.93;;
69410;SDS011;56604;48.652;9.194;2023-01-28T02:41:08;7.70;;;5.80;;
69410;SDS011;56604;48.652;9.194;2023-01-28T02:43:44;6.60;;;5.57;;
69410;SDS011;56604;48.652;9.194;2023-01-28T02:46:21;7.77;;;6.10;;
69410;SDS011;56604;48.652;9.194;2023-01-28T02:49:22;8.00;;;6.50;;
69410;SDS011;56604;48.652;9.194;2023-01-28T02:51:58;7.57;;;6.20;;
69410;SDS011;56604;48.652;9.194;2023-01-28T03:02:35;11.73;;;6.40;;
69410;SDS011;56604;48.652;9.194;2023-01-28T03:05:15;12.80;;;6.60;;
69410;SDS011;56604;48.652;9.194;2023-01-28T03:07:46;13.83;;;8.20;;
69410;SDS011;56604;48.652;9.194;2023-01-28T03:10:13;12.37;;;7.30;;
69410;SDS011;56604;48.652;9.194;2023-01-28T03:12:41;15.10;;;7.30;;
69410;SDS011;56604;48.652;9.194;2023-01-28T03:15:31;22.63;;;8.80;;
69410;SDS011;56604;48.652;9.194;2023-01-28T03:18:31;15.30;;;7.33;;
69410;SDS011;56604;48.652;9.194;2023-01-28T03:21:25;11.20;;;7.30;;
69410;SDS011;56604;48.652;9.194;2023-01-28T03:24:28;20.10;;;8.10;;
69410;SDS011;56604;48.652;9.194;2023-01-28T03:27:27;31.77;;;10.10;;
69410;SDS011;56604;48.652;9.194;2023-01-28T03:30:21;17.37;;;8.17;;
69410;SDS011;56604;48.652;9.194;2023-01-28T03:33:10;9.70;;;6.80;;
69410;SDS011;56604;48.652;9.194;2023-01-28T03:35:55;10.43;;;7.07;;
69410;SDS011;56604;48.652;9.194;2023-01-28T03:38:42;17.97;;;7.37;;
69410;SDS011;56604;48.652;9.194;2023-01-28T03:41:18;9.73;;;6.47;;
69410;SDS011;56604;48.652;9.194;2023-01-28T03:43:45;11.07;;;7.10;;
69410;SDS011;56604;48.652;9.194;2023-01-28T03:46:11;12.20;;;7.00;;
69410;SDS011;56604;48.652;9.194;2023-01-28T03:48:36;9.73;;;6.67;;
69410;SDS011;56604;48.652;9.194;2023-01-28T03:51:01;5.60;;;5.10;;
69410;SDS011;56604;48.652;9.194;2023-01-28T03:53:27;10.50;;;7.27;;
69410;SDS011;56604;48.652;9.194;2023-01-28T03:55:52;8.37;;;6.30;;
69410;SDS011;56604;48.652;9.194;2023-01-28T03:58:20;9.20;;;6.03;;
69410;SDS011;56604;48.652;9.194;2023-01-28T04:00:51;11.80;;;6.47;;
69410;SDS011;56604;48.652;9.194;2023-01-28T04:03:19;10.73;;;7.53;;
69410;SDS011;56604;48.652;9.194;2023-01-28T04:05:46;9.43;;;7.13;;
69410;SDS011;56604;48.652;9.194;2023-01-28T04:08:22;9.63;;;7.00;;
69410;SDS011;56604;48.652;9.194;2023-01-28T04:10:48;11.70;;;8.00;;
69410;SDS011;56604;48.652;9.194;2023-01-28T04:13:14;9.40;;;7.10;;
69410;SDS011;56604;48.652;9.194;2023-01-28T04:15:41;16.20;;;9.47;;
69410;SDS011;56604;48.652;9.194;2023-01-28T04:18:07;12.13;;;7.50;;
69410;SDS011;56604;48.652;9.194;2023-01-28T04:20:33;13.20;;;7.10;;
69410;SDS011;56604;48.652;9.194;2023-01-28T04:22:58;12.20;;;7.17;;
69410;SDS011;56604;48.652;9.194;2023-01-28T04:25:24;17.30;;;7.63;;
69410;SDS011;56604;48.652;9.194;2023-01-28T04:27:49;10.93;;;7.47;;
69410;SDS011;56604;48.652;9.194;2023-01-28T04:30:14;10.27;;;7.27;;
69410;SDS011;56604;48.652;9.194;2023-01-28T04:32:40;7.77;;;6.70;;
69410;SDS011;56604;48.652;9.194;2023-01-28T04:35:05;10.20;;;6.40;;
69410;SDS011;56604;48.652;9.194;2023-01-28T04:37:31;8.03;;;6.50;;
69410;SDS011;56604;48.652;9.194;2023-01-28T04:39:56;8.80;;;7.10;;
69410;SDS011;56604;48.652;9.194;2023-01-28T04:42:21;10.73;;;6.70;;
69410;SDS011;56604;48.652;9.194;2023-01-28T04:44:47;12.87;;;7.23;;
69410;SDS011;56604;48.652;9.194;2023-01-28T04:47:12;10.97;;;7.70;;
69410;SDS011;56604;48.652;9.194;2023-01-28T04:49:37;9.67;;;7.10;;
69410;SDS011;56604;48.652;9.194;2023-01-28T04:52:03;11.93;;;7.00;;
69410;SDS011;56604;48.652;9.194;2023-01-28T04:54:28;10.70;;;7.07;;
69410;SDS011;56604;48.652;9.194;2023-01-28T04:56:53;11.47;;;8.40;;
69410;SDS011;56604;48.652;9.194;2023-01-28T04:59:20;11.10;;;7.70;;
69410;SDS011;56604;48.652;9.194;2023-01-28T05:01:45;10.60;;;8.27;;
69410;SDS011;56604;48.652;9.194;2023-01-28T05:04:10;13.77;;;8.20;;
69410;SDS011;56604;48.652;9.194;2023-01-28T05:06:36;11.27;;;8.00;;
69410;SDS011;56604;48.652;9.194;2023-01-28T05:09:01;13.10;;;7.50;;
69410;SDS011;56604;48.652;9.194;2023-01-28T05:11:27;12.73;;;8.37;;
69410;SDS011;56604;48.652;9.194;2023-01-28T05:13:53;12.23;;;8.00;;
69410;SDS011;56604;48.652;9.194;2023-01-28T05:16:18;21.63;;;7.50;;
69410;SDS011;56604;48.652;9.194;2023-01-28T05:18:44;10.63;;;8.20;;
69410;SDS011;56604;48.652;9.194;2023-01-28T05:21:11;14.53;;;8.93;;
69410;SDS011;56604;48.652;9.194;2023-01-28T05:23:37;13.47;;;8.17;;
69410;SDS011;56604;48.652;9.194;2023-01-28T05:26:02;10.00;;;7.70;;
69410;SDS011;56604;48.652;9.194;2023-01-28T05:28:28;12.20;;;8.40;;
69410;SDS011;56604;48.652;9.194;2023-01-28T05:30:53;13.87;;;8.53;;
69410;SDS011;56604;48.652;9.194;2023-01-28T05:33:18;13.97;;;8.50;;
69410;SDS011;56604;48.652;9.194;2023-01-28T05:35:44;8.93;;;7.27;;
69410;SDS011;56604;48.652;9.194;2023-01-28T05:38:10;13.80;;;8.77;;
69410;SDS011;56604;48.652;9.194;2023-01-28T05:40:35;12.60;;;8.40;;
69410;SDS011;56604;48.652;9.194;2023-01-28T05:43:00;14.60;;;9.20;;
69410;SDS011;56604;48.652;9.194;2023-01-28T05:45:26;14.73;;;7.80;;
69410;SDS011;56604;48.652;9.194;2023-01-28T05:47:51;15.70;;;9.23;;
69410;SDS011;56604;48.652;9.194;2023-01-28T05:50:16;14.10;;;8.77;;
69410;SDS011;56604;48.652;9.194;2023-01-28T05:52:42;12.80;;;9.23;;
69410;SDS011;56604;48.652;9.194;2023-01-28T05:55:08;14.23;;;8.63;;
69410;SDS011;56604;48.652;9.194;2023-01-28T05:57:34;13.43;;;8.70;;
69410;SDS011;56604;48.652;9.194;2023-01-28T05:59:59;16.10;;;9.30;;
69410;SDS011;56604;48.652;9.194;2023-01-28T06:02:24;14.07;;;9.30;;
69410;SDS011;56604;48.652;9.194;2023-01-28T06:04:50;15.53;;;9.33;;
69410;SDS011;56604;48.652;9.194;2023-01-28T06:07:15;13.53;;;8.60;;
69410;SDS011;56604;48.652;9.194;2023-01-28T06:09:44;14.63;;;8.97;;
69410;SDS011;56604;48.652;9.194;2023-01-28T06:12:09;14.40;;;8.80;;
69410;SDS011;56604;48.652;9.194;2023-01-28T06:14:35;13.37;;;8.73;;
69410;SDS011;56604;48.652;9.194;2023-01-28T06:17:00;13.60;;;8.83;;
69410;SDS011;56604;48.652;9.194;2023-01-28T06:19:25;15.90;;;8.80;;
69410;SDS011;56604;48.652;9.194;2023-01-28T06:21:51;12.70;;;8.20;;
69410;SDS011;56604;48.652;9.194;2023-01-28T06:24:16;14.60;;;9.33;;
69410;SDS011;56604;48.652;9.194;2023-01-28T06:26:42;13.70;;;8.80;;
69410;SDS011;56604;48.652;9.194;2023-01-28T06:29:07;14.00;;;9.40;;
69410;SDS011;56604;48.652;9.194;2023-01-28T06:31:32;15.93;;;9.20;;
69410;SDS011;56604;48.652;9.194;2023-01-28T06:33:57;12.50;;;9.43;;
69410;SDS011;56604;48.652;9.194;2023-01-28T06:36:23;14.50;;;9.80;;
69410;SDS011;56604;48.652;9.194;2023-01-28T06:38:48;16.80;;;9.40;;
69410;SDS011;56604;48.652;9.194;2023-01-28T06:41:13;12.67;;;9.37;;
69410;SDS011;56604;48.652;9.194;2023-01-28T06:43:39;14.40;;;10.20;;
69410;SDS011;56604;48.652;9.194;2023-01-28T06:46:04;14.83;;;9.33;;
69410;SDS011;56604;48.652;9.194;2023-01-28T06:48:30;14.00;;;10.33;;
69410;SDS011;56604;48.652;9.194;2023-01-28T06:50:56;20.70;;;9.60;;
69410;SDS011;56604;48.652;9.194;2023-01-28T06:53:21;16.40;;;9.80;;
69410;SDS011;56604;48.652;9.194;2023-01-28T06:55:47;12.23;;;8.23;;
69410;SDS011;56604;48.652;9.194;2023-01-28T06:58:12;19.27;;;10.43;;
69410;SDS011;56604;48.652;9.194;2023-01-28T07:00:37;18.40;;;10.10;;
69410;SDS011;56604;48.652;9.194;2023-01-28T07:03:03;14.73;;;10.17;;
69410;SDS011;56604;48.652;9.194;2023-01-28T07:05:29;16.10;;;10.30;;
69410;SDS011;56604;48.652;9.194;2023-01-28T07:07:54;24.07;;;9.57;;
69410;SDS011;56604;48.652;9.194;2023-01-28T07:10:20;15.73;;;9.87;;
69410;SDS011;56604;48.652;9.194;2023-01-28T07:12:46;14.53;;;9.30;;
69410;SDS011;56604;48.652;9.194;2023-01-28T07:15:11;10.93;;;8.27;;
69410;SDS011;56604;48.652;9.194;2023-01-28T07:17:39;11.57;;;8.27;;
69410;SDS011;56604;48.652;9.194;2023-01-28T07:20:05;17.80;;;9.47;;
69410;SDS011;56604;48.652;9.194;2023-01-28T07:22:33;13.37;;;9.30;;
69410;SDS011;56604;48.652;9.194;2023-01-28T07:24:58;14.27;;;9.50;;
69410;SDS011;56604;48.652;9.194;2023-01-28T07:27:25;14.30;;;9.07;;
69410;SDS011;56604;48.652;9.194;2023-01-28T07:29:50;13.00;;;9.00;;
69410;SDS011;56604;48.652;9.194;2023-01-28T07:32:16;13.27;;;8.97;;
69410;SDS011;56604;48.652;9.194;2023-01-28T07:34:41;17.57;;;9.07;;
69410;SDS011;56604;48.652;9.194;2023-01-28T07:37:07;15.60;;;8.60;;
69410;SDS011;56604;48.652;9.194;2023-01-28T07:39:33;15.53;;;8.40;;
69410;SDS011;56604;48.652;9.194;2023-01-28T07:41:58;20.00;;;9.67;;
69410;SDS011;56604;48.652;9.194;2023-01-28T07:44:24;19.77;;;8.83;;
69410;SDS011;56604;48.652;9.194;2023-01-28T07:46:49;19.60;;;7.87;;
69410;SDS011;56604;48.652;9.194;2023-01-28T07:49:15;15.37;;;8.57;;
69410;SDS011;56604;48.652;9.194;2023-01-28T07:51:40;18.67;;;10.40;;
69410;SDS011;56604;48.652;9.194;2023-01-28T07:54:05;16.30;;;10.70;;
69410;SDS011;56604;48.652;9.194;2023-01-28T07:56:31;18.57;;;10.10;;
69410;SDS011;56604;48.652;9.194;2023-01-28T07:58:56;19.07;;;10.87;;
69410;SDS011;56604;48.652;9.194;2023-01-28T08:01:21;17.93;;;9.80;;
69410;SDS011;56604;48.652;9.194;2023-01-28T08:03:47;19.90;;;10.77;;
69410;SDS011;56604;48.652;9.194;2023-01-28T08:06:12;19.80;;;10.27;;
69410;SDS011;56604;48.652;9.194;2023-01-28T08:08:37;15.53;;;10.03;;
69410;SDS011;56604;48.652;9.194;2023-01-28T08:11:06;15.33;;;10.27;;
69410;SDS011;56604;48.652;9.194;2023-01-28T08:13:35;14.47;;;9.90;;
69410;SDS011;56604;48.652;9.194;2023-01-28T08:16:01;16.97;;;9.40;;
69410;SDS011;56604;48.652;9.194;2023-01-28T08:18:26;11.97;;;8.90;;
69410;SDS011;56604;48.652;9.194;2023-01-28T08:20:55;16.13;;;9.20;;
69410;SDS011;56604;48.652;9.194;2023-01-28T08:23:21;14.60;;;9.40;;
69410;SDS011;56604;48.652;9.194;2023-01-28T08:25:47;16.80;;;9.63;;
69410;SDS011;56604;48.652;9.194;2023-01-28T08:28:13;12.00;;;8.80;;
69410;SDS011;56604;48.652;9.194;2023-01-28T08:30:39;14.87;;;9.50;;
69410;SDS011;56604;48.652;9.194;2023-01-28T08:33:06;12.60;;;9.60;;
69410;SDS011;56604;48.652;9.194;2023-01-28T08:35:32;17.70;;;10.00;;
69410;SDS011;56604;48.652;9.194;2023-01-28T08:37:58;13.47;;;8.87;;
69410;SDS011;56604;48.652;9.194;2023-01-28T08:40:24;17.30;;;9.13;;
69410;SDS011;56604;48.652;9.194;2023-01-28T08:42:51;23.13;;;9.40;;
69410;SDS011;56604;48.652;9.194;2023-01-28T08:45:18;14.50;;;9.03;;
69410;SDS011;56604;48.652;9.194;2023-01-28T08:47:53;13.30;;;10.00;;
69410;SDS011;56604;48.652;9.194;2023-01-28T08:50:21;17.10;;;9.80;;
69410;SDS011;56604;48.652;9.194;2023-01-28T08:52:48;21.40;;;10.60;;
69410;SDS011;56604;48.652;9.194;2023-01-28T08:55:18;14.53;;;9.53;;
69410;SDS011;56604;48.652;9.194;2023-01-28T08:57:44;14.17;;;10.00;;
69410;SDS011;56604;48.652;9.194;2023-01-28T09:00:09;17.57;;;10.90;;
69410;SDS011;56604;48.652;9.194;2023-01-28T09:02:36;13.10;;;9.30;;
69410;SDS011;56604;48.652;9.194;2023-01-28T09:05:02;12.73;;;9.50;;
69410;SDS011;56604;48.652;9.194;2023-01-28T09:07:28;16.27;;;11.00;;
69410;SDS011;56604;48.652;9.194;2023-01-28T09:09:53;16.40;;;11.13;;
69410;SDS011;56604;48.652;9.194;2023-01-28T09:12:18;24.67;;;10.67;;
69410;SDS011;56604;48.652;9.194;2023-01-28T09:14:44;20.37;;;9.80;;
69410;SDS011;56604;48.652;9.194;2023-01-28T09:17:09;12.90;;;9.23;;
69410;SDS011;56604;48.652;9.194;2023-01-28T09:19:34;16.70;;;9.90;;
69410;SDS011;56604;48.652;9.194;2023-01-28T09:22:02;17.70;;;10.30;;
69410;SDS011;56604;48.652;9.194;2023-01-28T09:24:28;14.10;;;10.50;;
69410;SDS011;56604;48.652;9.194;2023-01-28T09:26:54;14.10;;;9.50;;
69410;SDS011;56604;48.652;9.194;2023-01-28T09:29:19;13.10;;;9.20;;
69410;SDS011;56604;48.652;9.194;2023-01-28T09:31:45;13.60;;;9.27;;
69410;SDS011;56604;48.652;9.194;2023-01-28T09:34:10;11.63;;;8.67;;
69410;SDS011;56604;48.652;9.194;2023-01-28T09:36:35;13.83;;;9.00;;
69410;SDS011;56604;48.652;9.194;2023-01-28T09:39:01;15.10;;;9.03;;
69410;SDS011;56604;48.652;9.194;2023-01-28T09:41:28;18.00;;;10.47;;
69410;SDS011;56604;48.652;9.194;2023-01-28T09:46:34;17.57;;;9.77;;
69410;SDS011;56604;48.652;9.194;2023-01-28T09:49:02;17.57;;;10.70;;
69410;SDS011;56604;48.652;9.194;2023-01-28T09:51:46;17.50;;;10.53;;
69410;SDS011;56604;48.652;9.194;2023-01-28T09:57:12;14.10;;;9.73;;
69410;SDS011;56604;48.652;9.194;2023-01-28T09:59:43;17.53;;;10.87;;
69410;SDS011;56604;48.652;9.194;2023-01-28T10:10:46;15.63;;;10.03;;
69410;SDS011;56604;48.652;9.194;2023-01-28T10:18:34;16.70;;;10.40;;
69410;SDS011;56604;48.652;9.194;2023-01-28T10:21:07;17.33;;;9.53;;
69410;SDS011;56604;48.652;9.194;2023-01-28T10:23:45;13.30;;;9.07;;
69410;SDS011;56604;48.652;9.194;2023-01-28T10:26:21;16.20;;;9.63;;
69410;SDS011;56604;48.652;9.194;2023-01-28T10:28:54;12.60;;;8.80;;
69410;SDS011;56604;48.652;9.194;2023-01-28T10:31:22;13.10;;;8.57;;
69410;SDS011;56604;48.652;9.194;2023-01-28T10:33:55;13.87;;;9.17;;
69410;SDS011;56604;48.652;9.194;2023-01-28T10:36:20;16.00;;;10.13;;
69410;SDS011;56604;48.652;9.194;2023-01-28T10:38:46;12.80;;;9.20;;
69410;SDS011;56604;48.652;9.194;2023-01-28T10:41:12;11.13;;;8.40;;
69410;SDS011;56604;48.652;9.194;2023-01-28T10:43:43;13.93;;;9.93;;
69410;SDS011;56604;48.652;9.194;2023-01-28T10:46:10;15.33;;;9.77;;
69410;SDS011;56604;48.652;9.194;2023-01-28T10:51:48;13.73;;;9.23;;
69410;SDS011;56604;48.652;9.194;2023-01-28T10:54:17;15.60;;;9.73;;
69410;SDS011;56604;48.652;9.194;2023-01-28T10:56:43;14.03;;;9.00;;
69410;SDS011;56604;48.652;9.194;2023-01-28T10:59:19;14.70;;;9.93;;
69410;SDS011;56604;48.652;9.194;2023-01-28T11:07:00;13.03;;;9.10;;
69410;SDS011;56604;48.652;9.194;2023-01-28T11:09:31;15.40;;;9.73;;
69410;SDS011;56604;48.652;9.194;2023-01-28T11:12:16;12.60;;;8.77;;
69410;SDS011;56604;48.652;9.194;2023-01-28T11:14:51;9.90;;;7.97;;
69410;SDS011;56604;48.652;9.194;2023-01-28T11:17:23;12.50;;;8.30;;
69410;SDS011;56604;48.652;9.194;2023-01-28T11:19:55;13.23;;;8.90;;
69410;SDS011;56604;48.652;9.194;2023-01-28T11:25:02;12.20;;;8.57;;
69410;SDS011;56604;48.652;9.194;2023-01-28T11:27:37;18.07;;;9.30;;
69410;SDS011;56604;48.652;9.194;2023-01-28T11:30:03;15.83;;;9.87;;
69410;SDS011;56604;48.652;9.194;2023-01-28T11:32:31;11.70;;;9.00;;
69410;SDS011;56604;48.652;9.194;2023-01-28T11:34:57;12.93;;;9.10;;
69410;SDS011;56604;48.652;9.194;2023-01-28T11:37:23;16.17;;;10.43;;
69410;SDS011;56604;48.652;9.194;2023-01-28T11:42:35;14.13;;;9.50;;
69410;SDS011;56604;48.652;9.194;2023-01-28T11:45:00;15.70;;;9.30;;
69410;SDS011;56604;48.652;9.194;2023-01-28T11:50:23;14.30;;;9.13;;
69410;SDS011;56604;48.652;9.194;2023-01-28T11:53:07;17.20;;;10.50;;
69410;SDS011;56604;48.652;9.194;2023-01-28T12:12:28;20.00;;;11.30;;
69410;SDS011;56604;48.652;9.194;2023-01-28T12:26:12;17.50;;;10.33;;
69410;SDS011;56604;48.652;9.194;2023-01-28T12:28:47;17.73;;;10.33;;
69410;SDS011;56604;48.652;9.194;2023-01-28T12:31:30;16.53;;;9.87;;
69410;SDS011;56604;48.652;9.194;2023-01-28T12:37:00;15.90;;;9.17;;
69410;SDS011;56604;48.652;9.194;2023-01-28T12:45:22;21.37;;;11.40;;
69410;SDS011;56604;48.652;9.194;2023-01-28T12:47:56;16.90;;;11.17;;
69410;SDS011;56604;48.652;9.194;2023-01-28T12:50:35;15.80;;;9.40;;
69410;SDS011;56604;48.652;9.194;2023-01-28T12:53:20;17.30;;;10.50;;
69410;SDS011;56604;48.652;9.194;2023-01-28T12:55:59;14.10;;;9.63;;
69410;SDS011;56604;48.652;9.194;2023-01-28T12:58:38;18.07;;;11.10;;
69410;SDS011;56604;48.652;9.194;2023-01-28T13:01:08;19.20;;;9.50;;
69410;SDS011;56604;48.652;9.194;2023-01-28T13:03:40;19.10;;;10.47;;
69410;SDS011;56604;48.652;9.194;2023-01-28T13:09:00;18.03;;;10.90;;
69410;SDS011;56604;48.652;9.194;2023-01-28T13:11:34;12.80;;;9.40;;
69410;SDS011;56604;48.652;9.194;2023-01-28T13:14:02;13.40;;;8.93;;
69410;SDS011;56604;48.652;9.194;2023-01-28T13:16:28;19.00;;;10.40;;
69410;SDS011;56604;48.652;9.194;2023-01-28T13:19:03;18.30;;;10.90;;
69410;SDS011;56604;48.652;9.194;2023-01-28T13:21:31;18.70;;;10.00;;
69410;SDS011;56604;48.652;9.194;2023-01-28T13:29:14;17.37;;;10.57;;
69410;SDS011;56604;48.652;9.194;2023-01-28T13:31:45;16.47;;;10.80;;
69410;SDS011;56604;48.652;9.194;2023-01-28T13:34:29;21.60;;;10.93;;
69410;SDS011;56604;48.652;9.194;2023-01-28T13:39:31;18.87;;;11.03;;
69410;SDS011;56604;48.652;9.194;2023-01-28T13:44:43;17.50;;;11.30;;
69410;SDS011;56604;48.652;9.194;2023-01-28T13:47:26;22.40;;;12.10;;
69410;SDS011;56604;48.652;9.194;2023-01-28T13:49:56;22.63;;;12.70;;
69410;SDS011;56604;48.652;9.194;2023-01-28T13:52:31;17.40;;;11.17;;
69410;SDS011;56604;48.652;9.194;2023-01-28T13:55:05;20.90;;;11.93;;
69410;SDS011;56604;48.652;9.194;2023-01-28T14:11:30;14.87;;;8.40;;
69410;SDS011;56604;48.652;9.194;2023-01-28T14:14:24;12.40;;;8.73;;
69410;SDS011;56604;48.652;9.194;2023-01-28T14:19:36;12.93;;;8.07;;
69410;SDS011;56604;48.652;9.194;2023-01-28T14:22:08;19.20;;;9.70;;
69410;SDS011;56604;48.652;9.194;2023-01-28T14:24:37;12.27;;;5.80;;
69410;SDS011;56604;48.652;9.194;2023-01-28T14:29:43;10.73;;;6.13;;
69410;SDS011;56604;48.652;9.194;2023-01-28T14:32:32;9.30;;;5.73;;
69410;SDS011;56604;48.652;9.194;2023-01-28T14:34:59;10.30;;;6.10;;
69410;SDS011;56604;48.652;9.194;2023-01-28T14:37:31;11.50;;;6.67;;
69410;SDS011;56604;48.652;9.194;2023-01-28T14:39:58;10.03;;;5.90;;
69410;SDS011;56604;48.652;9.194;2023-01-28T14:42:26;9.50;;;7.10;;
69410;SDS011;56604;48.652;9.194;2023-01-28T14:45:08;9.97;;;6.10;;
69410;SDS011;56604;48.652;9.194;2023-01-28T14:48:02;11.50;;;7.03;;
69410;SDS011;56604;48.652;9.194;2023-01-28T14:58:49;12.17;;;8.20;;
69410;SDS011;56604;48.652;9.194;2023-01-28T15:01:41;13.17;;;8.63;;
69410;SDS011;56604;48.652;9.194;2023-01-28T15:04:20;9.37;;;6.27;;
69410;SDS011;56604;48.652;9.194;2023-01-28T15:06:47;9.10;;;6.80;;
69410;SDS011;56604;48.652;9.194;2023-01-28T15:09:12;7.00;;;6.30;;
69410;SDS011;56604;48.652;9.194;2023-01-28T15:11:39;8.40;;;6.63;;
69410;SDS011;56604;48.652;9.194;2023-01-28T15:14:12;14.60;;;8.73;;
69410;SDS011;56604;48.652;9.194;2023-01-28T15:16:46;12.00;;;7.17;;
69410;SDS011;56604;48.652;9.194;2023-01-28T15:19:13;9.90;;;7.90;;
69410;SDS011;56604;48.652;9.194;2023-01-28T15:21:39;11.17;;;7.23;;
69410;SDS011;56604;48.652;9.194;2023-01-28T15:24:09;10.10;;;7.00;;
69410;SDS011;56604;48.652;9.194;2023-01-28T15:26:38;10.80;;;7.60;;
69410;SDS011;56604;48.652;9.194;2023-01-28T15:29:03;10.53;;;7.73;;
69410;SDS011;56604;48.652;9.194;2023-01-28T15:31:30;10.43;;;7.50;;
69410;SDS011;56604;48.652;9.194;2023-01-28T15:34:11;12.87;;;7.87;;
69410;SDS011;56604;48.652;9.194;2023-01-28T15:36:38;9.53;;;7.50;;
69410;SDS011;56604;48.652;9.194;2023-01-28T15:39:11;15.47;;;8.40;;
69410;SDS011;56604;48.652;9.194;2023-01-28T15:41:39;14.53;;;8.13;;
69410;SDS011;56604;48.652;9.194;2023-01-28T15:44:15;9.83;;;7.60;;
69410;SDS011;56604;48.652;9.194;2023-01-28T15:46:56;9.17;;;6.73;;
69410;SDS011;56604;48.652;9.194;2023-01-28T15:49:24;11.13;;;7.40;;
69410;SDS011;56604;48.652;9.194;2023-01-28T15:51:52;13.60;;;7.93;;
69410;SDS011;56604;48.652;9.194;2023-01-28T15:54:18;11.50;;;7.53;;
69410;SDS011;56604;48.652;9.194;2023-01-28T15:56:44;9.03;;;7.07;;
69410;SDS011;56604;48.652;9.194;2023-01-28T15:59:25;12.10;;;8.50;;
69410;SDS011;56604;48.652;9.194;2023-01-28T16:04:54;11.00;;;7.90;;
69410;SDS011;56604;48.652;9.194;2023-01-28T16:07:20;9.13;;;7.10;;
69410;SDS011;56604;48.652;9.194;2023-01-28T16:09:49;14.30;;;8.80;;
69410;SDS011;56604;48.652;9.194;2023-01-28T16:12:17;7.40;;;6.67;;
69410;SDS011;56604;48.652;9.194;2023-01-28T16:14:48;8.37;;;7.47;;
69410;SDS011;56604;48.652;9.194;2023-01-28T16:17:16;10.30;;;7.33;;
69410;SDS011;56604;48.652;9.194;2023-01-28T16:19:46;13.17;;;7.90;;
69410;SDS011;56604;48.652;9.194;2023-01-28T16:22:18;8.93;;;6.90;;
69410;SDS011;56604;48.652;9.194;2023-01-28T16:24:49;11.53;;;8.10;;
69410;SDS011;56604;48.652;9.194;2023-01-28T16:27:23;14.50;;;8.10;;
69410;SDS011;56604;48.652;9.194;2023-01-28T16:29:50;7.80;;;6.83;;
69410;SDS011;56604;48.652;9.194;2023-01-28T16:35:00;6.67;;;5.97;;
69410;SDS011;56604;48.652;9.194;2023-01-28T16:37:27;13.90;;;8.17;;
69410;SDS011;56604;48.652;9.194;2023-01-28T16:39:52;9.37;;;6.47;;
69410;SDS011;56604;48.652;9.194;2023-01-28T16:42:18;12.13;;;7.23;;
69410;SDS011;56604;48.652;9.194;2023-01-28T16:44:43;7.27;;;6.43;;
69410;SDS011;56604;48.652;9.194;2023-01-28T16:47:08;10.60;;;7.17;;
69410;SDS011;56604;48.652;9.194;2023-01-28T16:49:34;10.20;;;7.30;;
69410;SDS011;56604;48.652;9.194;2023-01-28T16:51:59;7.30;;;6.17;;
69410;SDS011;56604;48.652;9.194;2023-01-28T16:54:25;12.70;;;6.93;;
69410;SDS011;56604;48.652;9.194;2023-01-28T16:56:51;8.63;;;6.87;;
69410;SDS011;56604;48.652;9.194;2023-01-28T16:59:18;10.93;;;6.80;;
69410;SDS011;56604;48.652;9.194;2023-01-28T17:01:43;7.70;;;6.53;;
69410;SDS011;56604;48.652;9.194;2023-01-28T17:04:09;8.63;;;6.30;;
69410;SDS011;56604;48.652;9.194;2023-01-28T17:06:35;10.17;;;6.80;;
69410;SDS011;56604;48.652;9.194;2023-01-28T17:09:06;9.20;;;6.83;;